Terminal Aerodrome Forecast
Issued by NWS Pueblo, CO

Home | Current Version | Previous Version | Text Only | Print | Product List | Glossary On
Versions: 1 2 3 4 5 6 7 8 9 10 11 12 13 14 15 16 17 18 19 20 21 22 23 24 25 26 27 28 29 30 31 32 33 34 35 36 37 38 39 40 41 42 43 44 45 46 47 48 49 50
375
FTUS45 KPUB 262325
TAFCOS
TAF
KCOS 262325Z 2700/2724 17006KT P6SM VCSH SCT050 BKN150
     FM270100 20007KT P6SM SCT050 BKN120
     FM270400 05005KT P6SM SCT070 BKN120
     FM271400 33006KT P6SM SCT070 BKN120
     FM271700 33012KT P6SM SCT070 BKN120
     FM272000 32015G25KT P6SM BKN070=

USA.gov is the U.S. government's official web portal to all federal, state and local government web resources and services.